Time;durP1;ratioP1;P1;durP2;ratioP2;P2;SDS_P1;SDS_P2;PMS_P1;PMS_P2;Temp;Humidity;BMP_temperature;BMP_pressure;BME280_temperature;BME280_humidity;BME280_pressure;Samples;Min_cycle;Max_cycle;Signal;HPM_P1;HPM_P2
2022/12/24 00:01:11;;;;;;;1.42;1.15;;;;;;;7.07;100.00;99288.91;6266071;22;20020;-93
2022/12/24 00:03:36;;;;;;;0.17;0.17;;;;;;;6.91;100.00;99269.63;6241131;23;20016;-92
2022/12/24 00:06:07;;;;;;;0.75;0.75;;;;;;;7.05;100.00;99283.03;6241297;23;20012;-91
2022/12/24 00:08:32;;;;;;;1.85;1.75;;;;;;;6.99;100.00;99259.97;6241129;23;20012;-92
2022/12/24 00:10:58;;;;;;;1.75;1.65;;;;;;;6.77;100.00;99231.34;6240828;23;20008;-92
2022/12/24 00:13:24;;;;;;;0.55;0.55;;;;;;;7.06;100.00;99259.78;6240936;23;20012;-93
2022/12/24 00:15:49;;;;;;;0.85;0.57;;;;;;;6.79;100.00;99223.44;6241007;23;20008;-91
2022/12/24 00:18:15;;;;;;;1.65;0.93;;;;;;;7.09;100.00;99267.19;6241387;23;20111;-91
2022/12/24 00:20:41;;;;;;;7.88;0.85;;;;;;;6.99;100.00;99249.72;6216688;23;20436;-93
2022/12/24 00:23:07;;;;;;;1.27;1.20;;;;;;;7.16;100.00;99278.03;6240918;23;20016;-92
2022/12/24 00:25:33;;;;;;;0.98;0.98;;;;;;;7.01;100.00;99250.03;6214947;23;20459;-92
2022/12/24 00:27:58;;;;;;;2.28;1.90;;;;;;;7.11;100.00;99267.53;6215155;23;20012;-92
2022/12/24 00:30:24;;;;;;;5.35;1.88;;;;;;;7.14;100.00;99277.72;6243605;22;20451;-92
2022/12/24 00:32:50;;;;;;;3.45;1.65;;;;;;;7.18;100.00;99270.13;6241071;23;20004;-91
2022/12/24 00:35:15;;;;;;;0.80;0.80;;;;;;;6.98;100.00;99247.38;6241362;23;20004;-91
2022/12/24 00:37:41;;;;;;;0.65;0.65;;;;;;;7.03;100.00;99261.44;6216232;23;20015;-91
2022/12/24 00:40:07;;;;;;;1.65;1.30;;;;;;;6.99;100.00;99259.97;6216622;23;20011;-91
2022/12/24 00:42:32;;;;;;;0.95;0.95;;;;;;;7.22;100.00;99306.66;6190294;23;20066;-92
2022/12/24 00:44:58;;;;;;;0.85;0.75;;;;;;;7.09;100.00;99285.72;6216421;23;20016;-93
2022/12/24 00:47:23;;;;;;;0.57;0.57;;;;;;;7.07;100.00;99310.19;6240833;23;20012;-93
2022/12/24 00:49:49;;;;;;;4.22;1.23;;;;;;;6.95;100.00;99297.88;6190889;23;20028;-93
2022/12/24 00:52:14;;;;;;;0.90;0.90;;;;;;;7.00;100.00;99284.34;6242786;22;20134;-92
2022/12/24 00:54:40;;;;;;;0.90;0.88;;;;;;;7.13;100.00;99300.97;6243088;23;20019;-94
2022/12/24 00:57:06;;;;;;;5.07;1.83;;;;;;;7.04;100.00;99309.06;6239950;23;20115;-93
2022/12/24 00:59:31;;;;;;;1.27;1.23;;;;;;;7.11;100.00;99311.66;6265496;22;20100;-92
2022/12/24 01:01:57;;;;;;;0.57;0.57;;;;;;;7.02;100.00;99286.69;6237916;22;20424;-92
2022/12/24 01:07:06;;;;;;;2.38;1.30;;;;;;;6.83;100.00;99279.25;6240487;23;20112;-93
2022/12/24 01:09:32;;;;;;;0.80;0.80;;;;;;;6.99;100.00;99309.59;6243111;23;20108;-92
2022/12/24 01:11:57;;;;;;;1.02;0.93;;;;;;;6.80;100.00;99278.13;6214607;23;20026;-92
2022/12/24 01:14:23;;;;;;;0.35;0.35;;;;;;;6.71;100.00;99266.16;6217629;23;20050;-93
2022/12/24 01:16:48;;;;;;;0.28;0.28;;;;;;;6.76;100.00;99260.13;6192423;23;20020;-92
2022/12/24 01:19:14;;;;;;;0.75;0.75;;;;;;;6.77;100.00;99267.19;6242873;23;20023;-92
2022/12/24 01:21:40;;;;;;;1.35;1.25;;;;;;;6.85;100.00;99293.38;6217997;23;20027;-92
2022/12/24 01:24:05;;;;;;;1.05;0.98;;;;;;;6.94;100.00;99310.09;6216940;23;20024;-92
2022/12/24 01:26:31;;;;;;;1.90;1.65;;;;;;;6.74;100.00;99270.81;6217147;23;20458;-93
2022/12/24 01:28:56;;;;;;;1.88;0.98;;;;;;;6.74;100.00;99273.56;6217238;23;20016;-91
2022/12/24 01:31:22;;;;;;;1.25;1.15;;;;;;;6.78;100.00;99280.56;6243503;23;20083;-93
2022/12/24 01:33:48;;;;;;;1.17;1.15;;;;;;;7.04;100.00;99317.34;6217449;23;20027;-92
2022/12/24 01:36:14;;;;;;;0.25;0.25;;;;;;;6.85;100.00;99280.38;6217079;23;20039;-92
2022/12/24 01:38:39;;;;;;;0.52;0.52;;;;;;;6.80;100.00;99278.13;6214536;23;20004;-92
2022/12/24 01:43:49;;;;;;;2.22;2.03;;;;;;;6.91;100.00;99324.75;6217395;23;20012;-92
2022/12/24 01:46:19;;;;;;;0.82;0.82;;;;;;;6.69;100.00;99285.88;6216502;23;20012;-93
2022/12/24 01:48:50;;;;;;;0.88;0.88;;;;;;;6.78;100.00;99302.59;6243073;23;20083;-94
2022/12/24 01:51:18;;;;;;;1.50;0.77;;;;;;;6.87;100.00;99324.84;6241162;23;20075;-92
2022/12/24 01:53:46;;;;;;;1.15;0.88;;;;;;;6.84;100.00;99336.72;6218140;23;20019;-93
2022/12/24 01:56:12;;;;;;;0.45;0.45;;;;;;;6.79;100.00;99336.47;6217912;23;20004;-93
2022/12/24 01:58:39;;;;;;;0.85;0.85;;;;;;;6.77;100.00;99350.66;6193132;23;20480;-94
2022/12/24 02:32:23;;;;;;;1.30;1.27;;;;;;;6.78;100.00;99425.84;6302000;22;20023;-91
2022/12/24 02:34:57;;;;;;;1.55;1.42;;;;;;;6.81;100.00;99427.75;6167198;22;20015;-92
2022/12/24 02:37:24;;;;;;;;;;;;;;;6.81;100.00;99431.28;6253208;22;20519;-93
2022/12/24 02:39:58;;;;;;;1.67;1.05;;;;;;;6.79;100.00;99421.91;6252105;22;20250;-92
2022/12/24 02:42:28;;;;;;;1.70;1.60;;;;;;;6.81;100.00;99427.75;6226698;22;20011;-93
2022/12/24 02:45:17;;;;;;;1.55;1.40;;;;;;;6.69;100.00;99403.59;6223739;22;20047;-93
2022/12/24 02:47:44;;;;;;;0.22;0.22;;;;;;;6.91;100.00;99435.03;6206870;22;20023;-93
2022/12/24 02:50:11;;;;;;;0.08;0.08;;;;;;;6.97;100.00;99422.28;6226895;22;20010;-91
2022/12/24 02:52:41;;;;;;;0.70;0.70;;;;;;;6.97;100.00;99422.28;6226359;22;20442;-93
2022/12/24 02:55:09;;;;;;;2.08;1.08;;;;;;;6.85;100.00;99420.19;6227359;22;20362;-93
2022/12/24 02:58:10;;;;;;;0.28;0.28;;;;;;;6.90;100.00;99434.25;6252439;22;20098;-94
2022/12/24 03:01:18;;;;;;;0.17;0.17;;;;;;;6.90;100.00;99417.72;6194063;22;20019;-92
2022/12/24 03:04:15;;;;;;;0.63;0.63;;;;;;;6.82;100.00;99396.25;6180059;22;20043;-92
2022/12/24 03:07:06;;;;;;;0.43;0.43;;;;;;;6.69;100.00;99401.63;6235705;22;20023;-93
2022/12/24 03:09:56;;;;;;;1.77;1.27;;;;;;;6.74;100.00;99403.09;6197186;22;20022;-93
2022/12/24 03:12:32;;;;;;;1.20;1.02;;;;;;;6.77;100.00;99382.94;6221695;22;20019;-92
2022/12/24 03:14:58;;;;;;;0.90;0.90;;;;;;;6.79;100.00;99380.56;6192658;22;20020;-92
2022/12/24 03:17:25;;;;;;;0.38;0.38;;;;;;;6.79;100.00;99383.31;6193364;22;20035;-92
2022/12/24 03:19:52;;;;;;;1.00;0.98;;;;;;;6.78;100.00;99381.75;6194842;22;20087;-93
2022/12/24 03:22:17;;;;;;;0.75;0.30;;;;;;;6.80;100.00;99384.84;6194608;22;20271;-93
2022/12/24 03:24:43;;;;;;;0.50;0.50;;;;;;;6.77;100.00;99380.97;6194714;22;20478;-92
2022/12/24 03:27:10;;;;;;;1.30;0.55;;;;;;;6.80;100.00;99384.84;6194633;22;20004;-92
2022/12/24 03:29:38;;;;;;;0.40;0.40;;;;;;;6.67;100.00;99389.47;6193048;22;20027;-93
2022/12/24 03:32:04;;;;;;;0.68;0.50;;;;;;;6.77;100.00;99413.28;6195518;22;20019;-94
2022/12/24 03:34:30;;;;;;;2.15;1.10;;;;;;;6.77;100.00;99413.28;6193282;22;20016;-91
2022/12/24 03:36:56;;;;;;;0.65;0.50;;;;;;;6.80;100.00;99423.44;6195332;22;20069;-93
2022/12/24 03:39:22;;;;;;;0.98;0.57;;;;;;;6.82;100.00;99429.31;6194779;22;20022;-92
2022/12/24 03:41:48;;;;;;;0.73;0.73;;;;;;;6.84;100.00;99429.66;6193821;22;20258;-93
2022/12/24 03:44:13;;;;;;;0.40;0.40;;;;;;;6.76;100.00;99433.75;6195819;22;20016;-93
2022/12/24 03:46:39;;;;;;;0.88;0.88;;;;;;;6.66;100.00;99443.81;6193321;22;20008;-91
2022/12/24 03:49:05;;;;;;;1.13;0.82;;;;;;;6.68;100.00;99443.38;6194255;22;20090;-94
2022/12/24 03:51:32;;;;;;;1.02;0.88;;;;;;;6.71;100.00;99448.06;6195240;22;20031;-92
2022/12/24 03:53:58;;;;;;;1.40;1.30;;;;;;;6.73;100.00;99465.72;6193688;22;20020;-91
2022/12/24 03:56:24;;;;;;;0.90;0.90;;;;;;;6.74;100.00;99452.72;6198065;22;20086;-92
2022/12/24 03:58:50;;;;;;;1.95;0.75;;;;;;;6.69;100.00;99461.47;6194395;22;20073;-94
2022/12/24 04:01:16;;;;;;;0.80;0.80;;;;;;;6.72;100.00;99466.13;6221273;22;20012;-92
2022/12/24 04:03:43;;;;;;;0.60;0.57;;;;;;;6.69;100.00;99467.00;6197614;22;20022;-92
2022/12/24 04:06:13;;;;;;;0.60;0.57;;;;;;;6.70;100.00;99463.81;6194575;22;20023;-91
2022/12/24 04:08:39;;;;;;;1.45;1.35;;;;;;;6.68;100.00;99470.94;6197693;22;20024;-91
2022/12/24 04:11:07;;;;;;;1.95;0.75;;;;;;;6.68;100.00;99468.19;6195302;22;20168;-92
2022/12/24 04:13:33;;;;;;;0.73;0.73;;;;;;;6.60;100.00;99467.56;6196480;22;20016;-93
2022/12/24 04:16:05;;;;;;;3.30;1.08;;;;;;;6.55;100.00;99457.03;6195968;22;20069;-93
2022/12/24 04:18:31;;;;;;;1.02;1.02;;;;;;;6.57;100.00;99471.94;6194706;22;20030;-92
2022/12/24 04:20:57;;;;;;;0.40;0.40;;;;;;;6.46;100.00;99460.34;6195877;22;20008;-92
2022/12/24 04:23:22;;;;;;;0.30;0.30;;;;;;;6.51;100.00;99468.13;6195291;22;20054;-92
2022/12/24 04:25:48;;;;;;;0.30;0.30;;;;;;;6.49;100.00;99467.78;6195087;22;20046;-92
2022/12/24 04:28:14;;;;;;;1.80;1.65;;;;;;;6.40;100.00;99456.53;6196160;22;20431;-92
2022/12/24 04:30:41;;;;;;;0.50;0.50;;;;;;;6.39;100.00;99473.50;6192436;22;20015;-93
2022/12/24 04:33:07;;;;;;;1.13;0.45;;;;;;;6.34;100.00;99480.25;6195129;22;20098;-92
2022/12/24 04:35:33;;;;;;;0.90;0.63;;;;;;;6.36;100.00;99485.34;6194057;22;20020;-92
2022/12/24 04:37:58;;;;;;;1.33;1.23;;;;;;;6.32;100.00;99465.34;6194003;22;20015;-92
2022/12/24 04:40:25;;;;;;;0.20;0.20;;;;;;;6.38;100.00;99474.69;6195214;22;20042;-92
2022/12/24 04:42:50;;;;;;;0.40;0.40;;;;;;;6.33;100.00;99459.41;6193598;22;20019;-91
2022/12/24 04:45:17;;;;;;;0.65;0.63;;;;;;;6.33;100.00;99472.41;6195389;22;20023;-93
2022/12/24 04:47:42;;;;;;;1.55;1.20;;;;;;;6.32;100.00;99481.88;6193769;22;20083;-92
2022/12/24 04:50:08;;;;;;;0.38;0.38;;;;;;;6.26;100.00;99469.78;6195397;22;20050;-94
2022/12/24 04:52:34;;;;;;;0.08;0.08;;;;;;;6.27;100.00;99494.16;6196411;22;20441;-92
2022/12/24 04:55:00;;;;;;;2.00;1.20;;;;;;;6.21;100.00;99497.81;6195196;22;20087;-91
2022/12/24 04:57:26;;;;;;;1.08;0.98;;;;;;;6.28;100.00;99509.47;6197750;22;20007;-93
2022/12/24 04:59:52;;;;;;;0.22;0.22;;;;;;;6.17;100.00;99489.63;6196784;22;20101;-92
2022/12/24 05:02:17;;;;;;;0.57;0.57;;;;;;;6.26;100.00;99511.88;6168377;22;20012;-92
2022/12/24 05:04:43;;;;;;;0.52;0.52;;;;;;;6.19;100.00;99514.75;6198089;22;20402;-93
2022/12/24 05:07:09;;;;;;;1.25;0.90;;;;;;;6.09;100.00;99501.97;6197210;22;20016;-93
2022/12/24 05:09:34;;;;;;;0.90;0.85;;;;;;;6.10;100.00;99514.53;6197837;22;20420;-91
2022/12/24 05:12:00;;;;;;;0.75;0.75;;;;;;;6.06;100.00;99508.31;6222061;22;20012;-94
2022/12/24 05:14:26;;;;;;;1.35;1.00;;;;;;;5.99;100.00;99503.69;6196499;22;20011;-92
2022/12/24 05:16:51;;;;;;;0.47;0.47;;;;;;;6.00;100.00;99512.72;6172276;22;20024;-93
2022/12/24 05:19:17;;;;;;;0.45;0.45;;;;;;;5.97;100.00;99491.53;6195502;22;20077;-92
2022/12/24 05:21:43;;;;;;;1.55;1.45;;;;;;;5.96;100.00;99498.25;6197878;22;20384;-94
2022/12/24 05:26:56;;;;;;;0.95;0.57;;;;;;;6.01;100.00;99511.53;6227116;22;20019;-92
2022/12/24 05:29:22;;;;;;;0.40;0.40;;;;;;;5.98;100.00;99517.88;6197348;22;20011;-92
2022/12/24 05:31:48;;;;;;;1.30;0.47;;;;;;;5.99;100.00;99513.91;6195610;22;20086;-94
2022/12/24 05:34:15;;;;;;;1.42;1.10;;;;;;;5.93;100.00;99499.09;6196933;22;20015;-92
2022/12/24 05:36:41;;;;;;;1.73;1.30;;;;;;;5.95;100.00;99513.97;6194201;22;20057;-92
2022/12/24 05:39:07;;;;;;;0.00;0.00;;;;;;;5.97;100.00;99535.59;6195251;22;20057;-92
2022/12/24 05:41:32;;;;;;;0.90;0.73;;;;;;;5.95;100.00;99543.47;6197694;22;20057;-92
2022/12/24 05:43:58;;;;;;;1.48;1.38;;;;;;;5.88;100.00;99541.63;6195995;22;20110;-93
2022/12/24 05:46:24;;;;;;;2.40;1.55;;;;;;;5.89;100.00;99545.16;6222329;22;20053;-92
2022/12/24 05:48:51;;;;;;;0.65;0.65;;;;;;;5.85;100.00;99549.91;6195945;22;20007;-93
2022/12/24 05:51:18;;;;;;;0.55;0.55;;;;;;;5.83;100.00;99549.53;6196202;22;20006;-92
2022/12/24 05:53:45;;;;;;;1.02;1.00;;;;;;;5.82;100.00;99553.50;6196227;22;20515;-93
2022/12/24 05:56:19;;;;;;;0.32;0.32;;;;;;;5.76;100.00;99552.41;6195343;22;20026;-92
2022/12/24 05:58:44;;;;;;;1.63;0.63;;;;;;;5.84;100.00;99556.59;6195946;22;20019;-92
2022/12/24 06:01:11;;;;;;;4.05;2.30;;;;;;;5.75;100.00;99548.09;6194356;22;20019;-91
2022/12/24 06:03:37;;;;;;;0.88;0.88;;;;;;;5.74;100.00;99558.34;6194430;22;20010;-92
2022/12/24 06:06:08;;;;;;;0.50;0.50;;;;;;;5.81;100.00;99535.41;6196607;22;20020;-93
2022/12/24 06:08:35;;;;;;;0.32;0.32;;;;;;;5.85;100.00;99563.66;6193981;22;20015;-91
2022/12/24 06:11:03;;;;;;;1.15;1.05;;;;;;;5.89;100.00;99569.94;6195423;22;20012;-92
2022/12/24 06:13:29;;;;;;;1.02;0.70;;;;;;;5.89;100.00;99567.97;6195013;22;20019;-93
2022/12/24 06:15:56;;;;;;;1.40;0.93;;;;;;;5.85;100.00;99558.94;6194219;22;20012;-92
2022/12/24 06:18:22;;;;;;;0.88;0.88;;;;;;;5.90;100.00;99582.50;6195931;22;20003;-91
2022/12/24 06:20:51;;;;;;;1.42;1.23;;;;;;;5.84;100.00;99570.34;6192586;22;20447;-94
2022/12/24 06:23:17;;;;;;;1.67;1.40;;;;;;;5.84;100.00;99568.41;6194829;22;20066;-93
2022/12/24 06:25:43;;;;;;;0.85;0.82;;;;;;;5.76;100.00;99566.16;6195557;22;20016;-93
2022/12/24 06:28:08;;;;;;;2.35;2.08;;;;;;;5.68;100.00;99545.44;6219846;22;20459;-93
2022/12/24 06:30:34;;;;;;;0.60;0.60;;;;;;;5.73;100.00;99544.97;6221357;22;20020;-92
2022/12/24 06:33:00;;;;;;;0.50;0.50;;;;;;;5.73;100.00;99544.97;6193521;22;20077;-92
2022/12/24 06:35:26;;;;;;;0.80;0.55;;;;;;;5.80;100.00;99555.88;6195137;22;20020;-93
2022/12/24 06:37:51;;;;;;;0.28;0.28;;;;;;;5.71;100.00;99567.41;6194525;22;20026;-93
2022/12/24 06:40:17;;;;;;;1.58;1.48;;;;;;;5.82;100.00;99589.28;6194493;22;20047;-92
2022/12/24 06:42:43;;;;;;;0.28;0.28;;;;;;;5.78;100.00;99572.81;6196550;22;20035;-92
2022/12/24 06:45:09;;;;;;;0.77;0.73;;;;;;;5.86;100.00;99581.75;6193940;22;20046;-91
2022/12/24 06:47:34;;;;;;;0.52;0.52;;;;;;;5.91;100.00;99584.03;6196577;22;19999;-92
2022/12/24 06:50:00;;;;;;;0.95;0.95;;;;;;;5.95;100.00;99590.28;6194921;22;20023;-93
2022/12/24 06:52:26;;;;;;;0.20;0.20;;;;;;;6.00;100.00;99587.84;6196203;22;20451;-92
2022/12/24 06:54:51;;;;;;;0.55;0.32;;;;;;;6.01;100.00;99567.38;6196497;22;20012;-92
2022/12/24 06:57:17;;;;;;;0.90;0.65;;;;;;;6.05;100.00;99590.13;6195083;22;20000;-93
2022/12/24 06:59:43;;;;;;;0.60;0.60;;;;;;;5.98;100.00;99578.44;6195676;22;20138;-93
2022/12/24 07:02:08;;;;;;;1.35;0.63;;;;;;;6.14;100.00;99586.84;6194344;22;20012;-92
2022/12/24 07:04:35;;;;;;;2.85;1.45;;;;;;;6.12;100.00;99600.25;6196081;22;20015;-91
2022/12/24 07:07:00;;;;;;;1.00;0.85;;;;;;;6.24;100.00;99598.88;6196242;22;20004;-92
2022/12/24 07:09:26;;;;;;;0.50;0.50;;;;;;;6.27;100.00;99606.31;6195378;22;20012;-92
2022/12/24 07:11:52;;;;;;;0.13;0.13;;;;;;;6.25;100.00;99597.69;6195922;22;20022;-93
2022/12/24 07:14:17;;;;;;;0.43;0.43;;;;;;;6.28;100.00;99603.13;6196065;22;20016;-92
2022/12/24 07:16:43;;;;;;;1.38;1.25;;;;;;;6.25;100.00;99595.72;6201369;22;20000;-91
2022/12/24 07:19:08;;;;;;;0.10;0.10;;;;;;;6.35;100.00;99613.28;6196670;22;20046;-93
2022/12/24 07:21:34;;;;;;;0.22;0.22;;;;;;;6.42;100.00;99619.44;6195358;22;19999;-92
2022/12/24 07:24:00;;;;;;;0.38;0.38;;;;;;;6.41;100.00;99609.59;6194272;22;20042;-93
2022/12/24 07:26:25;;;;;;;0.10;0.10;;;;;;;6.49;100.00;99608.28;6196382;22;20019;-91
2022/12/24 07:28:51;;;;;;;0.80;0.55;;;;;;;6.52;100.00;99620.44;6219135;22;20016;-92
2022/12/24 07:31:17;;;;;;;1.58;1.48;;;;;;;6.46;100.00;99625.66;6195844;22;20384;-91
2022/12/24 07:33:42;;;;;;;0.40;0.40;;;;;;;6.45;100.00;99626.84;6194468;22;20012;-92
2022/12/24 07:36:09;;;;;;;0.85;0.85;;;;;;;6.40;100.00;99627.31;6195620;22;20018;-92
2022/12/24 07:38:36;;;;;;;0.65;0.65;;;;;;;6.32;100.00;99642.41;6195600;22;20007;-92
2022/12/24 07:41:02;;;;;;;1.63;1.52;;;;;;;6.33;100.00;99634.94;6194141;22;20011;-91
2022/12/24 07:43:28;;;;;;;0.52;0.52;;;;;;;6.31;100.00;99632.59;6193399;22;20018;-93
2022/12/24 07:45:55;;;;;;;0.38;0.38;;;;;;;6.34;100.00;99631.78;6217931;22;20007;-91
2022/12/24 07:48:21;;;;;;;0.43;0.43;;;;;;;6.30;100.00;99625.53;6193786;22;20019;-92
2022/12/24 07:50:51;;;;;;;0.90;0.90;;;;;;;6.28;100.00;99627.13;6193315;22;20007;-92
2022/12/24 07:53:17;;;;;;;3.92;3.22;;;;;;;6.27;100.00;99618.09;6193142;22;20016;-92
2022/12/24 07:55:43;;;;;;;1.02;1.02;;;;;;;6.34;100.00;99620.75;6190253;22;20011;-93
2022/12/24 07:58:09;;;;;;;1.58;1.35;;;;;;;6.44;100.00;99625.28;6194284;22;20018;-91
2022/12/24 08:00:35;;;;;;;0.75;0.75;;;;;;;6.54;100.00;99632.63;6193813;22;20008;-93
2022/12/24 08:03:01;;;;;;;0.30;0.30;;;;;;;6.57;100.00;99640.03;6193619;22;20015;-91
2022/12/24 08:05:27;;;;;;;0.40;0.35;;;;;;;6.48;100.00;99637.03;6194390;22;20007;-93
2022/12/24 08:07:53;;;;;;;2.35;1.98;;;;;;;6.40;100.00;99645.81;6194202;22;20011;-93
2022/12/24 08:10:19;;;;;;;0.60;0.57;;;;;;;6.42;100.00;99658.00;6192655;22;20016;-92
2022/12/24 08:12:47;;;;;;;1.23;0.65;;;;;;;6.39;100.00;99653.31;6192721;22;20038;-93
2022/12/24 08:15:12;;;;;;;1.00;0.90;;;;;;;6.46;100.00;99668.97;6217246;22;20049;-91
2022/12/24 08:17:38;;;;;;;1.05;0.98;;;;;;;6.45;100.00;99676.44;6193822;22;20410;-91
2022/12/24 08:20:06;;;;;;;1.38;1.27;;;;;;;6.46;100.00;99689.03;6193242;22;20494;-91
2022/12/24 08:22:32;;;;;;;1.88;1.77;;;;;;;6.50;100.00;99706.28;6188193;22;20015;-92
2022/12/24 08:24:58;;;;;;;1.27;1.17;;;;;;;6.46;100.00;99718.56;6191597;22;20025;-92
2022/12/24 08:27:23;;;;;;;6.47;1.70;;;;;;;6.50;100.00;99722.03;6193622;22;20499;-90
2022/12/24 08:35:13;;;;;;;1.13;1.13;;;;;;;6.50;100.00;99741.34;6304138;22;20824;-93
2022/12/24 08:37:38;;;;;;;2.05;1.92;;;;;;;6.54;100.00;99753.06;6229217;22;20340;-92
2022/12/24 08:40:08;;;;;;;2.15;1.60;;;;;;;6.43;100.00;99736.69;6228254;22;20012;-93
2022/12/24 08:42:34;;;;;;;2.63;1.60;;;;;;;6.46;100.00;99719.34;6253969;22;20069;-93
2022/12/24 08:45:06;;;;;;;3.47;1.92;;;;;;;6.33;100.00;99712.84;6227872;22;20015;-94
2022/12/24 08:47:41;;;;;;;3.20;2.08;;;;;;;6.37;100.00;99699.78;6234356;22;20011;-95
2022/12/24 08:50:07;;;;;;;0.93;0.90;;;;;;;6.54;100.00;99731.81;6229635;22;20340;-94
2022/12/24 08:52:34;;;;;;;0.98;0.85;;;;;;;6.37;100.00;99710.81;6230480;22;20006;-94
2022/12/24 08:55:00;;;;;;;0.47;0.47;;;;;;;6.44;100.00;99726.44;6230288;22;20015;-94
2022/12/24 08:57:26;;;;;;;1.30;1.23;;;;;;;6.54;100.00;99740.09;6230131;22;20137;-94
2022/12/24 08:59:52;;;;;;;1.02;0.95;;;;;;;6.74;100.00;99762.22;6254178;22;20007;-94
2022/12/24 09:21:14;;;;;;;0.45;0.45;;;;;;;7.06;100.00;99756.19;6278031;22;20028;-96
2022/12/24 09:23:42;;;;;;;1.35;1.25;;;;;;;6.97;100.00;99750.41;6255177;22;20115;-95
2022/12/24 09:26:09;;;;;;;1.45;0.85;;;;;;;6.87;100.00;99740.34;6259703;22;20023;-93
2022/12/24 09:28:44;;;;;;;1.77;1.67;;;;;;;7.10;100.00;99772.66;6261100;22;20455;-95
2022/12/24 10:20:19;;;;;;;5.05;2.53;;;;;;;7.30;100.00;99823.94;6306348;22;20023;-93
2022/12/24 10:23:12;;;;;;;1.92;1.63;;;;;;;7.44;100.00;99831.97;6250108;22;20100;-91
2022/12/24 10:25:47;;;;;;;1.77;1.67;;;;;;;7.41;100.00;99843.84;6227763;22;20019;-92
2022/12/24 10:28:18;;;;;;;3.88;3.53;;;;;;;7.38;100.00;99850.22;6252538;22;20101;-94
2022/12/24 10:30:48;;;;;;;4.18;3.00;;;;;;;7.28;100.00;99829.09;6225938;22;20453;-92
2022/12/24 10:33:20;;;;;;;2.67;2.47;;;;;;;7.32;100.00;99823.53;6227848;22;20007;-92
2022/12/24 10:35:53;;;;;;;1.92;1.83;;;;;;;7.40;100.00;99830.50;6277910;22;20090;-92
2022/12/24 10:38:18;;;;;;;1.08;1.08;;;;;;;7.39;100.00;99823.41;6228064;22;20037;-92
2022/12/24 10:40:52;;;;;;;3.67;2.03;;;;;;;7.29;100.00;99819.63;6227411;22;20408;-94
2022/12/24 10:43:21;;;;;;;1.35;1.25;;;;;;;7.36;100.00;99818.72;6253870;22;20030;-95
2022/12/24 10:45:52;;;;;;;1.60;1.33;;;;;;;7.34;100.00;99818.34;6228224;22;20011;-94
2022/12/24 10:48:28;;;;;;;3.85;2.28;;;;;;;7.68;100.00;99845.78;6254211;22;20015;-93
2022/12/24 10:51:00;;;;;;;2.17;2.00;;;;;;;7.68;100.00;99843.00;6229464;22;20015;-96
2022/12/24 10:53:39;;;;;;;0.98;0.93;;;;;;;7.76;100.00;99833.41;6254693;22;20012;-95
2022/12/24 10:56:07;;;;;;;1.52;1.42;;;;;;;7.73;100.00;99814.88;6254389;22;20023;-94
2022/12/24 10:58:33;;;;;;;1.67;1.25;;;;;;;7.85;100.00;99830.84;6229152;22;20017;-94
2022/12/24 11:00:59;;;;;;;4.18;3.10;;;;;;;7.84;100.00;99843.09;6227810;22;20011;-93
2022/12/24 11:03:38;;;;;;;2.25;2.05;;;;;;;7.89;100.00;99845.34;6196927;22;20053;-92
2022/12/24 11:06:08;;;;;;;1.50;1.40;;;;;;;7.92;100.00;99850.06;6221689;22;20433;-92
2022/12/24 11:08:36;;;;;;;0.45;0.45;;;;;;;7.91;100.00;99840.19;6222053;22;20103;-93
2022/12/24 11:11:04;;;;;;;1.00;1.00;;;;;;;7.87;100.00;99833.97;6221137;22;20023;-92
2022/12/24 11:13:33;;;;;;;1.60;1.50;;;;;;;7.94;100.00;99837.38;6222207;22;20031;-93
2022/12/24 11:16:06;;;;;;;1.08;0.85;;;;;;;8.04;100.00;99852.19;6222329;22;20156;-93
2022/12/24 11:18:37;;;;;;;1.17;1.08;;;;;;;8.06;100.00;99858.06;6197390;22;20020;-93
2022/12/24 11:24:26;;;;;;;2.22;2.00;;;;;;;7.85;100.00;99839.13;6306592;22;20026;-96
2022/12/24 11:26:52;;;;;;;2.83;2.60;;;;;;;7.91;100.00;99851.25;6230807;22;20012;-94
2022/12/24 11:29:26;;;;;;;3.42;2.50;;;;;;;7.81;100.00;99841.16;6230429;22;19995;-96
2022/12/24 11:32:18;;;;;;;2.97;2.47;;;;;;;7.86;100.00;99849.75;6230211;22;20007;-95
2022/12/24 11:34:44;;;;;;;1.60;1.40;;;;;;;7.95;100.00;99851.97;6254397;22;20011;-95
2022/12/24 11:37:18;;;;;;;2.15;1.60;;;;;;;8.16;100.00;99870.91;6230418;22;20080;-94
2022/12/24 11:39:48;;;;;;;1.95;1.85;;;;;;;8.03;100.00;99844.31;6229967;22;20433;-93
2022/12/24 11:42:40;;;;;;;1.65;1.35;;;;;;;8.14;100.00;99862.22;6252790;22;20012;-93
2022/12/24 11:45:22;;;;;;;1.45;1.35;;;;;;;8.27;100.00;99879.75;6221134;22;20015;-93
2022/12/24 11:47:48;;;;;;;1.65;1.55;;;;;;;8.35;100.00;99869.34;6254428;22;20033;-95
2022/12/24 11:50:26;;;;;;;1.80;1.70;;;;;;;8.49;100.00;99880.13;6227679;22;20015;-94
2022/12/24 11:52:58;;;;;;;3.50;2.92;;;;;;;8.54;100.00;99879.59;6254243;22;20015;-95
2022/12/24 11:55:40;;;;;;;1.60;1.50;;;;;;;8.60;100.00;99888.19;6253316;22;20039;-93
2022/12/24 11:58:30;;;;;;;1.60;1.50;;;;;;;8.61;100.00;99895.28;6253817;22;20011;-94
2022/12/24 12:01:30;;;;;;;4.72;2.45;;;;;;;8.65;100.00;99901.53;6228410;22;20018;-94
2022/12/24 12:04:00;;;;;;;4.75;2.15;;;;;;;8.49;100.00;99871.06;6199829;22;20015;-95
2022/12/24 12:06:42;;;;;;;3.17;2.88;;;;;;;8.47;100.00;99863.19;6200584;22;20011;-95
2022/12/24 12:09:23;;;;;;;2.45;2.25;;;;;;;8.57;100.00;99864.16;6199220;22;20016;-95
2022/12/24 12:12:04;;;;;;;4.90;3.45;;;;;;;8.74;100.00;99893.41;6200247;22;20016;-95
2022/12/24 12:14:37;;;;;;;7.72;3.80;;;;;;;8.62;100.00;99877.47;6200058;22;20012;-94
2022/12/24 12:17:32;;;;;;;;;;;;;;;8.85;100.00;99910.56;6225723;22;20015;-94
2022/12/24 12:20:05;;;;;;;2.00;1.70;;;;;;;8.87;100.00;99897.84;6190946;22;19964;-94
2022/12/24 12:22:52;;;;;;;7.90;4.35;;;;;;;8.90;100.00;99898.97;6223244;22;20008;-94
2022/12/24 12:25:22;;;;;;;7.82;4.78;;;;;;;8.72;100.00;99876.47;6168703;23;20024;-95
2022/12/24 12:27:52;;;;;;;1.92;1.75;;;;;;;8.83;100.00;99879.78;6168076;23;20018;-93
2022/12/24 12:30:20;;;;;;;5.13;3.17;;;;;;;8.92;100.00;99888.28;6167618;23;20108;-94
2022/12/24 12:33:14;;;;;;;3.72;2.95;;;;;;;9.00;100.00;99903.50;6168204;23;20012;-94
2022/12/24 12:35:40;;;;;;;;;;;;;;;9.10;100.00;99915.56;6168527;23;20047;-93
2022/12/24 12:38:11;;;;;;;2.22;2.05;;;;;;;9.16;100.00;99914.59;6194250;23;20405;-95
2022/12/24 12:40:36;;;;;;;5.10;2.85;;;;;;;9.29;100.00;99909.97;6168531;23;20016;-95
2022/12/24 12:43:15;;;;;;;2.90;1.92;;;;;;;9.18;100.00;99912.16;6194251;23;20004;-96
2022/12/24 12:45:54;;;;;;;4.22;3.28;;;;;;;9.23;100.00;99911.66;6191801;23;20016;-95
2022/12/24 12:48:49;;;;;;;4.38;2.25;;;;;;;9.40;100.00;99911.69;6166604;23;20389;-93
2022/12/24 12:51:23;;;;;;;4.65;3.15;;;;;;;9.21;100.00;99897.50;6169705;23;20127;-94
2022/12/24 12:54:13;;;;;;;4.03;3.00;;;;;;;9.42;100.00;99936.97;6169071;23;20442;-94
2022/12/24 12:56:43;;;;;;;3.10;2.80;;;;;;;9.48;100.00;99922.16;6216029;23;20020;-92
2022/12/24 12:59:21;;;;;;;4.75;4.30;;;;;;;9.56;100.00;99920.00;6163928;23;20008;-92
2022/12/24 13:02:24;;;;;;;9.70;2.70;;;;;;;9.50;100.00;99935.56;6165097;23;20016;-93
2022/12/24 13:05:21;;;;;;;1.00;0.98;;;;;;;9.52;100.00;99919.28;6189653;23;20019;-93
2022/12/24 13:08:22;;;;;;;1.05;1.05;;;;;;;9.40;100.00;99922.75;6190683;23;20024;-94
2022/12/24 13:11:09;;;;;;;1.33;1.20;;;;;;;9.35;100.00;99912.97;6167856;23;20015;-93
2022/12/24 13:13:38;;;;;;;0.28;0.28;;;;;;;9.49;100.00;99932.03;6168029;23;20016;-94
2022/12/24 13:16:28;;;;;;;1.33;1.23;;;;;;;9.34;100.00;99898.34;6218748;23;20016;-95
2022/12/24 13:19:09;;;;;;;1.77;1.67;;;;;;;9.47;100.00;99911.50;6194174;23;20047;-94
2022/12/24 13:21:35;;;;;;;2.28;2.08;;;;;;;9.33;100.00;99894.03;6194737;23;20008;-94
2022/12/24 13:24:18;;;;;;;1.33;1.23;;;;;;;9.45;100.00;99897.31;6180556;23;20035;-94
2022/12/24 13:27:01;;;;;;;2.47;2.25;;;;;;;9.42;100.00;99910.06;6194555;23;20008;-95
2022/12/24 13:29:40;;;;;;;1.95;1.75;;;;;;;9.34;100.00;99903.13;6194667;23;20012;-94
2022/12/24 13:32:21;;;;;;;1.58;1.48;;;;;;;9.53;100.00;99935.50;6195134;23;20074;-94
2022/12/24 13:35:01;;;;;;;2.83;2.58;;;;;;;9.38;100.00;99912.88;6218132;23;20012;-94
2022/12/24 13:37:31;;;;;;;4.47;3.50;;;;;;;9.57;100.00;99949.25;6193872;23;20038;-95
2022/12/24 13:40:08;;;;;;;1.50;1.40;;;;;;;9.51;100.00;99934.34;6217920;23;20008;-94
2022/12/24 13:43:00;;;;;;;8.70;2.92;;;;;;;9.60;100.00;99945.59;6217346;23;20016;-93